Airfield :







YOU CAN JOIN US ON...

 
LOGIN :

Register | Disclaimer

   EN    FR    IT 

 









Legend :    VFR   Marginal VFR   IFR   Intensive IFR   Very Intensive IFR
Visi :
Ceiling :
>= 8 km
>= 3000ft
5 to 8 km
1000 to 3000 ft
1500m to 5 km
500 to 1000 ft
800 to 1500m
200 to 500 ft
< 800m
< 200 ft
Symbols :   Thunderstorms  Fog  Heavy snow  Heavy precipitations  Wind > 20 kt






- Airport Elevation : 403 ft
- IATA code : YKG


CYAS - Kangirsuk

CURRENT METAR :
  • 161950Z 01005KT 3/8SM DZ FG VV004 OVC004 01/01 A2958 RMK FG4ST4 SLP028

EXPIRED METARs :
  • 161920Z 02005KT 1SM -SN OVC019 01/01 A2957 RMK SC8 SLP024
  • 161900Z 03005KT 1/2SM SN OVC002 01/00 A2957 RMK ST8 VIS SE-SW 3 SLP022
  • 161800Z 04008KT 1/2SM SN OVC002 01/00 A2956 RMK ST8 VIS SE-SW 3 SLP019
  • 161721Z 04009KT 1/2SM SN OVC005 VV010 01/01 A2954 RMK ST3SN5 SLP014

TAF AMD TAF CYAS
Valid from the 16 at 17:00 until the 16 at 21:00 UTC


161726Z 1617/1621 04012KT 1/2SM SN FZFG OVC003
TEMPO 1617/1621 P6SM -RA -SN OVC005 RMK NXT FCST WILL BE ISSUED AT 171345Z



MET'MAP, your aeronautical weather chart ! - Copyright ORBIFLY December 2007 - Disclaimer

ORBIFLY MET'MAP TEAM :

Programming & Development : Alexandra Zaïnal
Concept & Development : Baudouin d'Aumeries
Co-Development & Prog : Marc-Olivier Méhu
Technical & hardware support : Manuel Goepfert

Contact : metmap@orbifly.com




SOURCES & CREDITS :

   NOAA